Time;durP1;ratioP1;P1;durP2;ratioP2;P2;SDS_P1;SDS_P2;PMS_P1;PMS_P2;Temp;Humidity;BMP_temperature;BMP_pressure;BME280_temperature;BME280_humidity;BME280_pressure;Samples;Min_cycle;Max_cycle;Signal;HPM_P1;HPM_P2
2022/03/27 00:01:41;;;;;;;;;;;;;;;17.00;44.25;102126.75;4920149;28;107588;-62
2022/03/27 00:04:07;;;;;;;;;;;;;;;16.98;44.41;102128.13;4918173;28;129105;-65
2022/03/27 00:06:33;;;;;;;;;;;;;;;16.95;44.30;102128.69;4920923;28;98362;-66
2022/03/27 00:08:59;;;;;;;;;;;;;;;16.92;44.24;102130.84;4919399;28;127885;-61
2022/03/27 00:11:25;;;;;;;;;;;;;;;16.90;44.29;102127.59;4919205;28;127700;-62
2022/03/27 00:13:55;;;;;;;;;;;;;;;16.88;44.20;102128.94;4921125;28;98437;-61
2022/03/27 00:16:21;;;;;;;;;;;;;;;16.84;44.25;102127.84;4921195;28;98180;-67
2022/03/27 00:18:47;;;;;;;;;;;;;;;16.82;44.41;102124.56;4901650;28;116785;-67
2022/03/27 00:21:13;;;;;;;;;;;;;;;16.80;44.45;102118.56;4920004;28;118375;-62
2022/03/27 00:23:40;;;;;;;;;;;;;;;16.77;44.25;102128.09;4920003;28;127407;-61
2022/03/27 00:26:06;;;;;;;;;;;;;;;16.74;44.49;102128.66;4920824;28;97883;-65
2022/03/27 00:28:32;;;;;;;;;;;;;;;16.73;44.44;102129.72;4919677;28;128602;-61
2022/03/27 00:30:59;;;;;;;;;;;;;;;16.70;44.49;102122.03;4920342;28;98763;-62
2022/03/27 00:33:26;;;;;;;;;;;;;;;16.67;44.31;102128.03;4920331;28;97831;-67
2022/03/27 00:35:53;;;;;;;;;;;;;;;16.64;44.41;102123.13;4920525;28;97839;-61
2022/03/27 00:38:19;;;;;;;;;;;;;;;16.62;44.48;102125.28;4901483;28;120487;-66
2022/03/27 00:40:45;;;;;;;;;;;;;;;16.60;44.55;102133.72;4901869;28;122279;-67
2022/03/27 00:43:11;;;;;;;;;;;;;;;16.57;44.45;102139.72;4919997;28;122785;-67
2022/03/27 00:45:37;;;;;;;;;;;;;;;16.55;44.44;102130.19;4919834;28;98182;-62
2022/03/27 00:48:03;;;;;;;;;;;;;;;16.51;44.43;102132.63;4885058;28;126019;-67
2022/03/27 00:50:30;;;;;;;;;;;;;;;16.50;44.34;102132.88;4919199;28;125246;-61
2022/03/27 00:52:57;;;;;;;;;;;;;;;16.47;44.63;102139.69;4920394;28;98386;-65
2022/03/27 00:55:23;;;;;;;;;;;;;;;16.44;44.63;102137.50;4919251;28;97984;-62
2022/03/27 00:57:49;;;;;;;;;;;;;;;16.42;44.80;102145.09;4901384;28;129186;-62
2022/03/27 01:00:46;;;;;;;;;;;;;;;16.39;44.71;102138.28;4918894;28;127167;-61
2022/03/27 01:03:13;;;;;;;;;;;;;;;16.36;44.68;102135.28;4901943;28;98418;-65
2022/03/27 01:05:40;;;;;;;;;;;;;;;16.32;44.72;102132.28;4919659;28;97827;-62
2022/03/27 01:08:06;;;;;;;;;;;;;;;16.30;44.84;102133.63;4919643;28;109844;-65
2022/03/27 01:10:32;;;;;;;;;;;;;;;16.28;44.77;102130.34;4902243;28;103754;-67
2022/03/27 01:12:58;;;;;;;;;;;;;;;16.26;44.54;102137.94;4917894;28;124872;-65
2022/03/27 01:15:27;;;;;;;;;;;;;;;16.23;44.61;102138.47;4917245;28;122747;-62
2022/03/27 01:17:53;;;;;;;;;;;;;;;16.20;44.84;102135.22;4902280;28;98408;-62
2022/03/27 01:20:27;;;;;;;;;;;;;;;16.17;44.68;102129.47;4918868;28;128899;-65
2022/03/27 01:22:53;;;;;;;;;;;;;;;16.16;44.38;102133.28;4919834;28;98871;-61
2022/03/27 01:25:19;;;;;;;;;;;;;;;16.13;44.78;102139.25;4930692;28;122964;-62
2022/03/27 01:27:45;;;;;;;;;;;;;;;16.10;44.76;102134.34;4929275;28;128828;-61
2022/03/27 01:30:11;;;;;;;;;;;;;;;16.08;44.72;102126.44;4918137;28;128804;-62
2022/03/27 01:32:37;;;;;;;;;;;;;;;16.05;44.68;102124.25;4919594;28;98813;-62
2022/03/27 01:35:03;;;;;;;;;;;;;;;16.04;44.90;102127.25;4919411;28;121714;-65
2022/03/27 01:37:29;;;;;;;;;;;;;;;16.01;44.48;102125.88;4917960;28;125369;-61
2022/03/27 01:39:55;;;;;;;;;;;;;;;15.98;44.75;102123.66;4920132;28;128226;-62
2022/03/27 01:42:21;;;;;;;;;;;;;;;15.96;44.71;102123.13;4919896;28;97633;-63
2022/03/27 01:44:47;;;;;;;;;;;;;;;15.94;45.04;102126.09;4918781;28;121673;-67
2022/03/27 01:47:12;;;;;;;;;;;;;;;15.92;44.72;102131.00;4918358;28;127416;-61
2022/03/27 01:49:40;;;;;;;;;;;;;;;15.88;44.64;102124.44;4918371;28;127590;-67
2022/03/27 01:52:06;;;;;;;;;;;;;;;15.86;44.95;102120.34;4918598;28;123258;-61
2022/03/27 01:54:32;;;;;;;;;;;;;;;15.84;45.01;102136.13;4918143;28;112797;-61
2022/03/27 01:56:58;;;;;;;;;;;;;;;15.82;44.99;102125.47;4919138;28;127148;-65
2022/03/27 01:59:24;;;;;;;;;;;;;;;15.79;45.06;102126.00;4918783;28;125164;-67
2022/03/27 02:01:50;;;;;;;;;;;;;;;15.77;44.78;102130.91;4922489;28;128373;-61
2022/03/27 02:04:16;;;;;;;;;;;;;;;15.75;44.72;102127.59;4920696;28;97810;-67
2022/03/27 02:06:43;;;;;;;;;;;;;;;15.74;45.05;102134.13;4918894;28;117647;-67
2022/03/27 02:09:10;;;;;;;;;;;;;;;15.70;44.87;102131.13;4922186;28;98784;-61
2022/03/27 02:11:36;;;;;;;;;;;;;;;15.68;44.89;102129.75;4920411;28;98054;-65
2022/03/27 02:14:02;;;;;;;;;;;;;;;15.65;44.68;102125.66;4921675;28;123603;-61
2022/03/27 02:16:28;;;;;;;;;;;;;;;15.64;44.58;102132.13;4921692;28;98913;-65
2022/03/27 02:18:54;;;;;;;;;;;;;;;15.62;44.97;102131.56;4921980;28;127210;-61
2022/03/27 02:21:20;;;;;;;;;;;;;;;15.58;44.92;102127.75;4905188;28;103472;-62
2022/03/27 02:23:46;;;;;;;;;;;;;;;15.57;44.63;102131.53;4920353;28;121798;-62
2022/03/27 02:26:12;;;;;;;;;;;;;;;15.55;44.63;102138.31;4941602;28;98719;-65
2022/03/27 02:28:39;;;;;;;;;;;;;;;15.52;44.88;102139.63;4926221;28;99613;-67
2022/03/27 02:31:05;;;;;;;;;;;;;;;15.50;44.91;102133.66;4922230;28;97927;-66
2022/03/27 02:33:31;;;;;;;;;;;;;;;15.48;44.92;102133.09;4920830;28;122569;-67
2022/03/27 02:35:57;;;;;;;;;;;;;;;15.46;44.69;102137.97;4920725;28;128005;-65
2022/03/27 02:38:23;;;;;;;;;;;;;;;15.44;44.88;102134.69;4921654;28;124306;-62
2022/03/27 02:40:49;;;;;;;;;;;;;;;15.41;45.04;102144.19;4921119;28;98340;-65
2022/03/27 02:43:15;;;;;;;;;;;;;;;15.40;44.70;102136.28;4921518;28;122943;-62
2022/03/27 02:45:41;;;;;;;;;;;;;;;15.37;44.79;102139.53;4921590;28;98628;-67
2022/03/27 02:48:07;;;;;;;;;;;;;;;15.36;45.08;102143.31;4922023;28;98156;-62
2022/03/27 02:50:36;;;;;;;;;;;;;;;15.33;44.65;102144.66;4921700;28;97946;-67
2022/03/27 02:53:02;;;;;;;;;;;;;;;15.31;44.67;102146.81;4922448;28;98071;-62
2022/03/27 02:55:28;;;;;;;;;;;;;;;15.30;44.67;102145.19;4921291;28;129294;-61
2022/03/27 02:57:54;;;;;;;;;;;;;;;15.27;44.81;102153.03;4921024;28;127943;-67
2022/03/27 03:00:21;;;;;;;;;;;;;;;15.24;44.58;102143.47;4921818;28;98250;-62
2022/03/27 03:02:47;;;;;;;;;;;;;;;15.22;44.74;102149.19;4921946;28;97777;-67
2022/03/27 03:05:13;;;;;;;;;;;;;;;15.21;44.58;102160.31;4920334;28;129138;-67
2022/03/27 03:07:41;;;;;;;;;;;;;;;15.18;45.10;102152.69;4920304;28;124874;-62
2022/03/27 03:10:07;;;;;;;;;;;;;;;15.15;44.74;102153.19;4921835;28;98056;-65
2022/03/27 03:12:33;;;;;;;;;;;;;;;15.14;45.07;102159.69;4903774;28;108729;-67
2022/03/27 03:14:59;;;;;;;;;;;;;;;15.11;44.86;102158.31;4921312;28;127549;-61
2022/03/27 03:17:28;;;;;;;;;;;;;;;15.08;44.91;102163.44;4920888;28;128204;-61
2022/03/27 03:19:54;;;;;;;;;;;;;;;15.05;45.04;102159.34;4921820;28;98396;-65
2022/03/27 03:22:20;;;;;;;;;;;;;;;15.03;44.73;102155.25;4922180;28;98047;-67
2022/03/27 03:24:46;;;;;;;;;;;;;;;15.00;44.96;102159.28;4928429;28;126215;-62
2022/03/27 03:27:12;;;;;;;;;;;;;;;14.98;44.65;102158.72;4935133;28;98902;-67
2022/03/27 03:29:38;;;;;;;;;;;;;;;14.95;45.07;102164.66;4920321;28;127375;-65
2022/03/27 03:32:05;;;;;;;;;;;;;;;14.93;44.71;102170.38;4920603;28;117269;-62
2022/03/27 03:34:31;;;;;;;;;;;;;;;14.91;44.76;102169.78;4920068;28;120155;-62
2022/03/27 03:36:56;;;;;;;;;;;;;;;14.90;44.70;102178.19;4902380;28;119365;-62
2022/03/27 03:39:22;;;;;;;;;;;;;;;14.87;45.10;102168.66;4919912;28;116550;-67
2022/03/27 03:41:48;;;;;;;;;;;;;;;14.85;44.95;102169.97;4920131;28;97962;-67
2022/03/27 03:44:14;;;;;;;;;;;;;;;14.84;45.22;102165.63;4902667;28;126458;-62
2022/03/27 03:46:40;;;;;;;;;;;;;;;14.82;44.77;102162.38;4919731;28;99167;-65
2022/03/27 03:49:07;;;;;;;;;;;;;;;14.80;44.86;102168.03;4920805;28;97989;-63
2022/03/27 03:51:36;;;;;;;;;;;;;;;14.79;45.09;102171.00;4920696;28;97910;-62
2022/03/27 03:54:03;;;;;;;;;;;;;;;14.77;44.91;102173.97;4919925;28;126805;-62
2022/03/27 03:56:29;;;;;;;;;;;;;;;14.75;44.78;102169.88;4920200;28;98038;-62
2022/03/27 03:58:54;;;;;;;;;;;;;;;14.72;44.65;102172.00;4921450;28;98393;-62
2022/03/27 04:01:20;;;;;;;;;;;;;;;14.70;44.85;102185.03;4920289;28;117655;-66
2022/03/27 04:03:46;;;;;;;;;;;;;;;14.67;45.14;102182.81;4901462;28;127746;-66
2022/03/27 04:06:12;;;;;;;;;;;;;;;14.67;44.68;102182.00;4902107;28;128262;-67
2022/03/27 04:08:38;;;;;;;;;;;;;;;14.65;44.85;102184.94;4902218;28;97933;-66
2022/03/27 04:11:05;;;;;;;;;;;;;;;14.63;44.93;102181.69;4917756;28;123145;-67
2022/03/27 04:13:30;;;;;;;;;;;;;;;14.59;44.96;102177.84;4918288;28;98977;-62
2022/03/27 04:15:56;;;;;;;;;;;;;;;14.59;44.76;102177.03;4919774;28;127925;-67
2022/03/27 04:18:23;;;;;;;;;;;;;;;14.57;44.90;102184.59;4918792;28;128785;-62
2022/03/27 04:20:49;;;;;;;;;;;;;;;14.54;45.13;102180.50;4920602;28;97870;-66
2022/03/27 04:23:15;;;;;;;;;;;;;;;14.54;45.14;102179.66;4920081;28;127217;-65
2022/03/27 04:25:41;;;;;;;;;;;;;;;14.50;45.20;102173.91;4919859;28;98875;-67
2022/03/27 04:28:08;;;;;;;;;;;;;;;14.48;44.77;102181.47;4920488;28;97904;-67
2022/03/27 04:30:34;;;;;;;;;;;;;;;14.47;44.89;102174.41;4919115;28;98120;-66
2022/03/27 04:33:00;;;;;;;;;;;;;;;14.45;44.78;102180.06;4918633;28;98562;-62
2022/03/27 04:35:26;;;;;;;;;;;;;;;14.44;44.93;102186.56;4918649;28;128453;-66
2022/03/27 04:37:52;;;;;;;;;;;;;;;14.43;45.16;102187.66;4919199;28;126552;-65
2022/03/27 04:40:18;;;;;;;;;;;;;;;14.40;45.13;102190.84;4919995;28;122835;-62
2022/03/27 04:42:44;;;;;;;;;;;;;;;14.39;44.97;102183.81;4920377;28;98963;-62
2022/03/27 04:45:11;;;;;;;;;;;;;;;14.39;44.91;102177.56;4919220;28;127960;-62
2022/03/27 04:47:37;;;;;;;;;;;;;;;14.38;44.92;102181.31;4920120;28;98019;-67
2022/03/27 04:50:04;;;;;;;;;;;;;;;14.37;44.78;102185.94;4920364;28;98002;-61
2022/03/27 04:52:30;;;;;;;;;;;;;;;14.36;44.83;102187.00;4901869;28;98949;-67
2022/03/27 04:54:56;;;;;;;;;;;;;;;14.37;44.96;102185.13;4918449;28;128057;-65
2022/03/27 04:57:22;;;;;;;;;;;;;;;14.36;44.91;102187.00;4919040;28;119671;-65
2022/03/27 04:59:48;;;;;;;;;;;;;;;14.35;45.23;102187.28;4920232;28;97812;-67
2022/03/27 05:02:15;;;;;;;;;;;;;;;14.36;45.22;102188.91;4918590;28;128351;-67
2022/03/27 05:04:41;;;;;;;;;;;;;;;14.37;44.81;102190.53;4918952;28;125856;-63
2022/03/27 05:07:07;;;;;;;;;;;;;;;14.36;44.92;102192.44;4919972;28;97868;-62
2022/03/27 05:09:33;;;;;;;;;;;;;;;14.37;45.02;102187.81;4919990;28;97844;-62
2022/03/27 05:11:59;;;;;;;;;;;;;;;14.37;44.92;102188.63;4919991;28;98568;-67
2022/03/27 05:14:25;;;;;;;;;;;;;;;14.39;44.79;102185.69;4919119;28;127855;-62
2022/03/27 05:16:51;;;;;;;;;;;;;;;14.39;45.18;102197.38;4919137;28;106813;-61
2022/03/27 05:19:17;;;;;;;;;;;;;;;14.41;44.72;102184.34;4919463;28;122295;-67
2022/03/27 05:21:43;;;;;;;;;;;;;;;14.43;44.70;102178.69;4919257;28;98823;-62
2022/03/27 05:24:09;;;;;;;;;;;;;;;14.44;45.21;102189.28;4902802;28;128342;-65
2022/03/27 05:26:35;;;;;;;;;;;;;;;14.47;44.96;102190.69;4939230;28;98073;-62
2022/03/27 05:29:04;;;;;;;;;;;;;;;14.50;44.67;102192.91;4920341;28;98073;-62
2022/03/27 05:31:29;;;;;;;;;;;;;;;14.53;44.71;102197.00;4919257;28;99036;-63
2022/03/27 05:33:56;;;;;;;;;;;;;;;14.57;44.70;102200.88;4919036;28;127173;-66
2022/03/27 05:36:21;;;;;;;;;;;;;;;14.58;44.75;102197.91;4919436;28;98563;-66
2022/03/27 05:38:47;;;;;;;;;;;;;;;14.64;44.99;102202.31;4919062;28;120502;-62
2022/03/27 05:41:13;;;;;;;;;;;;;;;14.68;44.69;102203.44;4903570;28;98360;-62
2022/03/27 05:43:39;;;;;;;;;;;;;;;14.74;44.76;102201.63;4904239;28;127841;-68
2022/03/27 05:46:05;;;;;;;;;;;;;;;14.78;44.83;102200.06;4921419;28;97966;-66
2022/03/27 05:48:31;;;;;;;;;;;;;;;14.84;44.99;102209.06;4923068;28;97720;-65
2022/03/27 05:50:57;;;;;;;;;;;;;;;14.90;44.68;102194.50;4920941;28;122662;-62
2022/03/27 05:53:23;;;;;;;;;;;;;;;14.97;44.79;102200.50;4922824;28;128547;-62
2022/03/27 05:55:49;;;;;;;;;;;;;;;15.04;44.95;102195.72;4920709;28;127759;-66
2022/03/27 05:58:16;;;;;;;;;;;;;;;15.11;44.83;102190.09;4922106;28;120784;-62
2022/03/27 06:00:42;;;;;;;;;;;;;;;15.19;44.57;102190.44;4905683;28;98602;-62
2022/03/27 06:03:08;;;;;;;;;;;;;;;15.27;44.74;102178.28;4920655;28;128488;-62
2022/03/27 06:05:34;;;;;;;;;;;;;;;15.37;44.72;102185.72;4904445;28;125519;-62
2022/03/27 06:08:00;;;;;;;;;;;;;;;15.44;44.62;102184.44;4922156;28;122003;-67
2022/03/27 06:10:31;;;;;;;;;;;;;;;15.53;44.55;102179.34;4919559;28;127564;-62
2022/03/27 06:12:57;;;;;;;;;;;;;;;15.64;44.60;102178.34;4921619;28;97811;-62
2022/03/27 06:15:23;;;;;;;;;;;;;;;15.75;44.23;102173.00;4925496;28;98395;-66
2022/03/27 06:17:49;;;;;;;;;;;;;;;15.80;44.59;102173.03;4921504;28;98132;-63
2022/03/27 06:20:17;;;;;;;;;;;;;;;15.89;44.41;102174.19;4921248;28;120935;-67
2022/03/27 06:22:44;;;;;;;;;;;;;;;16.00;44.46;102184.06;4921378;28;98532;-67
2022/03/27 06:25:12;;;;;;;;;;;;;;;16.12;44.38;102194.75;4916961;28;98443;-66
2022/03/27 06:27:38;;;;;;;;;;;;;;;16.23;44.16;102185.56;4918534;28;98277;-68
2022/03/27 06:30:08;;;;;;;;;;;;;;;16.35;44.14;102186.16;4920290;28;98865;-66
2022/03/27 06:32:36;;;;;;;;;;;;;;;16.45;44.08;102197.09;4930376;28;127114;-62
2022/03/27 06:35:04;;;;;;;;;;;;;;;16.56;44.00;102195.25;4925409;28;98648;-67
2022/03/27 06:37:30;;;;;;;;;;;;;;;16.69;43.95;102202.09;4937495;28;99468;-62
2022/03/27 06:39:56;;;;;;;;;;;;;;;16.80;44.35;102202.97;4908539;28;104892;-62
2022/03/27 06:42:23;;;;;;;;;;;;;;;16.91;43.97;102205.47;4931515;28;98965;-62
2022/03/27 06:44:50;;;;;;;;;;;;;;;17.02;44.16;102211.78;4937671;28;98028;-66
2022/03/27 06:47:16;;;;;;;;;;;;;;;17.14;44.00;102203.34;4933026;28;97938;-62
2022/03/27 06:49:42;;;;;;;;;;;;;;;17.26;44.01;102197.66;4932697;28;98603;-66
2022/03/27 06:52:08;;;;;;;;;;;;;;;17.38;43.91;102199.03;4915448;28;98555;-62
2022/03/27 06:54:34;;;;;;;;;;;;;;;17.50;44.13;102206.13;4935134;28;127825;-62
2022/03/27 06:57:00;;;;;;;;;;;;;;;17.59;44.08;102202.56;4933337;28;98035;-68
2022/03/27 06:59:26;;;;;;;;;;;;;;;17.75;43.91;102213.50;4934241;28;127723;-62
2022/03/27 07:04:37;;;;;;;;;;;;;;;18.08;43.95;102212.13;4915192;28;98429;-62
2022/03/27 07:07:03;;;;;;;;;;;;;;;18.21;43.93;102217.00;4915680;28;120975;-67
2022/03/27 07:09:31;;;;;;;;;;;;;;;18.38;43.63;102219.38;4934152;28;125770;-67
2022/03/27 07:11:57;;;;;;;;;;;;;;;18.57;43.74;102222.34;4934539;28;98639;-64
2022/03/27 07:14:24;;;;;;;;;;;;;;;18.75;43.73;102219.03;4929446;28;127282;-63
2022/03/27 07:16:50;;;;;;;;;;;;;;;18.89;43.42;102220.03;4934985;28;98041;-63
2022/03/27 07:19:16;;;;;;;;;;;;;;;19.03;43.54;102220.25;4932614;28;98858;-66
2022/03/27 07:21:42;;;;;;;;;;;;;;;19.26;43.44;102220.66;4936691;28;114945;-66
2022/03/27 07:24:08;;;;;;;;;;;;;;;19.43;43.44;102218.34;4934637;28;98184;-67
2022/03/27 07:26:35;;;;;;;;;;;;;;;19.59;43.20;102219.03;4935908;28;122581;-67
2022/03/27 07:29:02;;;;;;;;;;;;;;;19.74;43.23;102218.13;4929715;28;99685;-67
2022/03/27 07:31:28;;;;;;;;;;;;;;;19.72;43.39;102215.66;4922495;28;98071;-62
2022/03/27 07:33:55;;;;;;;;;;;;;;;19.76;43.44;102224.09;4918648;28;98137;-63
2022/03/27 07:36:21;;;;;;;;;;;;;;;19.86;43.29;102227.56;4917593;28;98347;-68
2022/03/27 07:38:47;;;;;;;;;;;;;;;19.92;43.40;102220.13;4916680;28;127383;-67
2022/03/27 07:41:13;;;;;;;;;;;;;;;20.05;43.42;102224.13;4915904;28;129480;-62
2022/03/27 07:43:39;;;;;;;;;;;;;;;20.17;43.37;102216.34;4916873;28;127485;-63
2022/03/27 07:46:05;;;;;;;;;;;;;;;20.37;43.14;102220.75;4916225;28;122530;-66
2022/03/27 07:48:31;;;;;;;;;;;;;;;20.57;42.87;102223.28;4917152;28;98486;-67
2022/03/27 07:50:57;;;;;;;;;;;;;;;20.82;42.75;102230.34;4914811;28;128217;-68
2022/03/27 07:53:23;;;;;;;;;;;;;;;21.08;42.65;102230.84;4915932;28;126363;-67
2022/03/27 07:55:48;;;;;;;;;;;;;;;21.42;42.38;102238.06;4917106;28;116937;-63
2022/03/27 07:58:14;;;;;;;;;;;;;;;21.83;42.08;102234.63;4916380;28;119429;-62
2022/03/27 08:00:40;;;;;;;;;;;;;;;22.28;41.73;102235.75;4916853;28;127255;-68
2022/03/27 08:03:08;;;;;;;;;;;;;;;22.75;41.28;102233.72;4917653;28;98553;-67
2022/03/27 08:05:34;;;;;;;;;;;;;;;23.25;40.82;102230.94;4915771;28;98048;-68
2022/03/27 08:08:00;;;;;;;;;;;;;;;23.74;40.70;102237.50;4914848;28;125743;-66
2022/03/27 08:10:26;;;;;;;;;;;;;;;24.30;40.09;102242.66;4917379;28;102879;-68
2022/03/27 08:12:52;;;;;;;;;;;;;;;24.86;39.59;102244.63;4916533;28;97972;-62
2022/03/27 08:15:19;;;;;;;;;;;;;;;25.41;39.51;102234.94;4898306;28;98592;-62
2022/03/27 08:17:45;;;;;;;;;;;;;;;25.95;38.94;102247.22;4898853;28;99096;-67
2022/03/27 08:20:11;;;;;;;;;;;;;;;26.53;38.59;102249.63;4916133;28;97900;-63
2022/03/27 08:22:37;;;;;;;;;;;;;;;26.97;38.48;102241.84;4916971;28;98459;-62
2022/03/27 08:25:03;;;;;;;;;;;;;;;27.40;38.39;102236.81;4917035;28;104842;-65
2022/03/27 08:27:32;;;;;;;;;;;;;;;27.75;38.36;102239.25;4914678;28;98620;-66
2022/03/27 08:29:57;;;;;;;;;;;;;;;28.11;38.08;102232.16;4918167;28;100810;-62
2022/03/27 08:32:23;;;;;;;;;;;;;;;28.45;37.73;102232.88;4936535;28;118143;-66
2022/03/27 08:34:49;;;;;;;;;;;;;;;28.76;38.11;102226.72;4936456;28;121254;-66
2022/03/27 08:37:16;;;;;;;;;;;;;;;29.08;37.89;102224.94;4923315;28;122066;-63
2022/03/27 08:39:44;;;;;;;;;;;;;;;29.39;37.90;102228.97;4931849;28;98463;-63
2022/03/27 08:42:11;;;;;;;;;;;;;;;29.73;38.07;102227.56;4913299;28;98482;-63
2022/03/27 08:44:37;;;;;;;;;;;;;;;30.08;37.49;102227.69;4936762;28;106442;-62
2022/03/27 08:47:15;;;;;;;;;;;;;;;30.46;37.46;102218.72;4926063;28;99112;-66
2022/03/27 08:49:52;;;;;;;;;;;;;;;30.91;37.45;102224.88;4928555;28;117627;-61
2022/03/27 08:52:21;;;;;;;;;;;;;;;31.36;37.08;102226.22;4931470;28;115193;-61
2022/03/27 08:55:01;;;;;;;;;;;;;;;31.77;37.06;102219.84;4928045;28;98075;-65
2022/03/27 08:57:50;;;;;;;;;;;;;;;32.26;36.90;102224.66;4924537;28;98669;-64
2022/03/27 09:00:18;;;;;;;;;;;;;;;32.80;36.78;102221.88;4901511;28;101004;-65
2022/03/27 09:02:45;;;;;;;;;;;;;;;33.27;36.54;102224.09;4930857;28;98179;-65
2022/03/27 09:05:11;;;;;;;;;;;;;;;33.72;35.97;102214.63;4934716;28;98310;-64
2022/03/27 09:07:37;;;;;;;;;;;;;;;34.18;36.05;102210.63;4917341;28;98887;-61
2022/03/27 09:10:06;;;;;;;;;;;;;;;34.63;35.66;102209.34;4923761;28;129437;-64
2022/03/27 09:12:33;;;;;;;;;;;;;;;35.10;35.38;102203.97;4896416;28;120535;-65
2022/03/27 09:14:59;;;;;;;;;;;;;;;35.56;35.17;102209.69;4915608;28;122666;-62
2022/03/27 09:17:24;;;;;;;;;;;;;;;36.00;34.66;102202.13;4914842;28;109256;-64
2022/03/27 09:19:51;;;;;;;;;;;;;;;36.43;34.42;102196.44;4934793;28;127013;-62
2022/03/27 09:22:30;;;;;;;;;;;;;;;36.84;34.06;102194.72;4929463;28;113268;-62
2022/03/27 09:25:01;;;;;;;;;;;;;;;37.29;33.68;102189.28;4927451;28;98054;-62
2022/03/27 09:27:33;;;;;;;;;;;;;;;37.68;33.31;102188.22;4933063;28;102354;-65
2022/03/27 09:30:07;;;;;;;;;;;;;;;38.09;32.69;102195.94;4932633;28;98306;-62
2022/03/27 09:32:43;;;;;;;;;;;;;;;38.54;32.86;102184.63;4928492;28;115181;-62
2022/03/27 09:35:10;;;;;;;;;;;;;;;38.96;32.41;102190.97;4934630;28;98203;-64
2022/03/27 09:37:38;;;;;;;;;;;;;;;39.31;32.04;102186.84;4932449;28;98828;-62
2022/03/27 09:40:05;;;;;;;;;;;;;;;39.70;31.83;102177.00;4925283;28;98714;-62
2022/03/27 09:42:31;;;;;;;;;;;;;;;40.10;31.48;102177.88;4935374;28;98781;-62
2022/03/27 09:45:17;;;;;;;;;;;;;;;40.50;30.93;102183.56;4935449;28;98075;-66
2022/03/27 09:47:44;;;;;;;;;;;;;;;40.84;30.64;102174.03;4931394;28;98935;-64
2022/03/27 09:50:38;;;;;;;;;;;;;;;41.15;30.40;102166.88;4929418;28;98507;-64
2022/03/27 09:53:29;;;;;;;;;;;;;;;41.58;30.03;102167.84;4928130;28;97978;-64
2022/03/27 09:55:59;;;;;;;;;;;;;;;42.03;29.80;102165.06;4921028;28;97865;-64
2022/03/27 09:58:39;;;;;;;;;;;;;;;42.53;29.19;102160.84;4930166;28;98898;-62
2022/03/27 10:01:11;;;;;;;;;;;;;;;43.14;28.66;102162.63;4934958;28;98459;-63
2022/03/27 10:03:57;;;;;;;;;;;;;;;43.72;27.89;102160.75;4934017;28;98187;-65
2022/03/27 10:06:33;;;;;;;;;;;;;;;44.33;27.48;102153.69;4933573;28;98529;-65
2022/03/27 10:09:00;;;;;;;;;;;;;;;44.96;27.17;102158.19;4929728;28;98248;-65
2022/03/27 10:11:27;;;;;;;;;;;;;;;45.59;26.56;102156.00;4925832;28;123286;-66
2022/03/27 10:13:53;;;;;;;;;;;;;;;46.20;25.83;102147.66;4932370;28;98339;-65
2022/03/27 10:16:23;;;;;;;;;;;;;;;47.19;25.21;102144.13;4927801;28;97869;-64
2022/03/27 10:18:51;;;;;;;;;;;;;;;48.02;24.14;102147.19;4924003;28;97997;-62
2022/03/27 10:21:17;;;;;;;;;;;;;;;48.82;23.63;102138.75;4925045;28;118449;-62
2022/03/27 10:23:43;;;;;;;;;;;;;;;49.14;23.34;102131.16;4933152;28;98283;-62
2022/03/27 10:26:09;;;;;;;;;;;;;;;49.58;22.89;102133.81;4908956;28;121711;-62
2022/03/27 10:28:35;;;;;;;;;;;;;;;49.90;22.80;102121.66;4911932;28;127064;-63
2022/03/27 10:31:01;;;;;;;;;;;;;;;50.33;22.49;102123.38;4938462;28;97835;-63
2022/03/27 10:33:27;;;;;;;;;;;;;;;50.48;22.14;102111.00;4934209;28;110116;-66
2022/03/27 10:36:09;;;;;;;;;;;;;;;50.50;22.10;102114.91;4913078;28;98085;-63
2022/03/27 10:38:54;;;;;;;;;;;;;;;50.55;22.11;102110.56;4929233;28;99266;-66
2022/03/27 10:41:22;;;;;;;;;;;;;;;50.62;20.63;102095.72;4937551;28;98117;-62
2022/03/27 10:43:53;;;;;;;;;;;;;;;50.42;19.20;102090.09;4931876;28;98120;-61
2022/03/27 10:46:23;;;;;;;;;;;;;;;49.63;18.32;102087.25;4929399;28;98223;-61
2022/03/27 10:48:50;;;;;;;;;;;;;;;48.75;18.19;102088.44;4930658;28;99474;-60
2022/03/27 10:51:25;;;;;;;;;;;;;;;47.99;17.50;102073.91;4929582;28;98182;-61
2022/03/27 10:54:20;;;;;;;;;;;;;;;46.99;17.53;102071.38;4931410;28;98041;-60
2022/03/27 10:56:48;;;;;;;;;;;;;;;45.79;17.84;102067.31;4923263;28;98293;-60
2022/03/27 10:59:17;;;;;;;;;;;;;;;44.97;17.86;102065.94;4920057;28;98599;-61
2022/03/27 11:01:52;;;;;;;;;;;;;;;44.19;17.76;102063.34;4937088;28;97932;-62
2022/03/27 11:04:18;;;;;;;;;;;;;;;43.53;17.84;102060.47;4932588;28;98538;-63
2022/03/27 11:06:49;;;;;;;;;;;;;;;43.11;17.91;102058.63;4937780;28;97723;-60
2022/03/27 11:09:34;;;;;;;;;;;;;;;42.93;17.58;102054.81;4937554;28;98147;-61
2022/03/27 11:12:01;;;;;;;;;;;;;;;42.96;17.88;102048.19;4929783;28;98810;-62
2022/03/27 11:14:52;;;;;;;;;;;;;;;43.12;17.20;102048.91;4936752;28;98791;-60
2022/03/27 11:17:30;;;;;;;;;;;;;;;43.13;17.06;102047.63;4930484;28;98353;-60
2022/03/27 11:19:56;;;;;;;;;;;;;;;43.02;17.22;102044.34;4931422;28;98282;-62
2022/03/27 11:22:44;;;;;;;;;;;;;;;42.60;17.25;102038.00;4923679;28;127204;-60
2022/03/27 11:25:38;;;;;;;;;;;;;;;41.98;17.33;102037.47;4927806;28;98579;-62
2022/03/27 11:28:13;;;;;;;;;;;;;;;41.37;17.43;102033.44;4937697;28;98191;-62
2022/03/27 11:30:51;;;;;;;;;;;;;;;40.86;17.41;102027.44;4932269;28;99248;-60
2022/03/27 11:33:20;;;;;;;;;;;;;;;40.40;17.65;102021.63;4922430;28;98816;-62
2022/03/27 11:36:02;;;;;;;;;;;;;;;40.05;17.51;102019.53;4936537;28;98741;-62
2022/03/27 11:38:29;;;;;;;;;;;;;;;39.69;17.99;102020.25;4937603;28;97965;-62
2022/03/27 11:40:55;;;;;;;;;;;;;;;39.44;18.46;102015.84;4930064;28;98527;-63
2022/03/27 11:43:30;;;;;;;;;;;;;;;39.20;18.07;102012.22;4938185;28;98458;-62
2022/03/27 11:45:56;;;;;;;;;;;;;;;38.92;17.81;102007.09;4936308;28;98398;-60
2022/03/27 11:48:22;;;;;;;;;;;;;;;38.65;18.04;102002.22;4918178;28;98004;-62
2022/03/27 11:50:49;;;;;;;;;;;;;;;38.42;18.24;102002.19;4922603;28;127029;-62
2022/03/27 11:53:16;;;;;;;;;;;;;;;38.20;18.51;101993.19;4935620;28;111095;-60
2022/03/27 11:55:42;;;;;;;;;;;;;;;38.00;18.36;101998.69;4933298;28;98667;-60
2022/03/27 11:58:08;;;;;;;;;;;;;;;37.78;18.57;101984.84;4932456;28;98042;-62
2022/03/27 12:00:35;;;;;;;;;;;;;;;37.57;18.78;101980.28;4931583;28;98152;-60
2022/03/27 12:03:02;;;;;;;;;;;;;;;37.33;18.91;101976.44;4934746;28;98233;-61
2022/03/27 12:05:33;;;;;;;;;;;;;;;37.05;18.83;101973.91;4936829;28;98655;-60
2022/03/27 12:07:59;;;;;;;;;;;;;;;36.78;18.87;101971.69;4930228;28;99832;-60
2022/03/27 12:10:26;;;;;;;;;;;;;;;36.57;18.81;101963.44;4935054;28;99048;-63
2022/03/27 12:13:03;;;;;;;;;;;;;;;36.36;18.79;101961.53;4931865;28;98667;-61
2022/03/27 12:15:36;;;;;;;;;;;;;;;36.05;19.06;101960.50;4917970;28;98153;-61
2022/03/27 12:18:03;;;;;;;;;;;;;;;35.74;19.41;101951.78;4921749;28;97857;-60
2022/03/27 12:20:29;;;;;;;;;;;;;;;35.47;19.52;101956.22;4936103;28;98483;-61
2022/03/27 12:22:56;;;;;;;;;;;;;;;35.25;19.66;101947.03;4931712;28;98237;-60
2022/03/27 12:25:29;;;;;;;;;;;;;;;35.07;19.62;101947.88;4935729;28;98546;-62
2022/03/27 12:30:51;;;;;;;;;;;;;;;34.69;20.12;101941.03;4933916;28;98129;-60
2022/03/27 12:33:23;;;;;;;;;;;;;;;34.46;19.50;101941.38;4931336;28;126892;-61
2022/03/27 12:36:13;;;;;;;;;;;;;;;34.16;19.81;101934.13;4918082;28;98156;-60
2022/03/27 12:38:39;;;;;;;;;;;;;;;33.86;20.50;101928.78;4931689;28;98130;-60
2022/03/27 12:41:06;;;;;;;;;;;;;;;33.64;20.64;101927.88;4924786;28;127323;-60
2022/03/27 12:43:32;;;;;;;;;;;;;;;33.44;20.42;101926.53;4934525;28;98488;-61